Katherine Aerodrome, Australia
Current Conditions -  °F | °C
As of 10:00 PM on Monday 20 Oct 2014 (Local Time) from YPTN Reporting Station
Clear Clear  
Wind Chill: 86°   Ceiling: Unl
Heat Index: 86°   Visibility: 6mi
Dew Point: 48°   Wind: 7mph
Humidity: 27%   Direction: 70°ENE
Pressure: 29.94"   Gusts: NA
Location:  14.43°S, 132.27°E
Report Text: YPTN 201300Z AUTO 07006KT 9999 // NCD 30/09 Q1014
Loading
Personal Weather Stations






























Interactive Weather Map
Tropical Storm Tracking
New forecast layout! Learn more

10-Day Weather Forecast

Advertisements
Track Severe Weather on mobile